createdAt,value
2023-05-16T00:00:06.885Z,99356.73
2023-05-16T00:02:39.331Z,99355.78
2023-05-16T00:05:16.055Z,99355.75
2023-05-16T00:07:46.996Z,99350.88
2023-05-16T00:10:13.700Z,99356.60
2023-05-16T00:12:41.446Z,99358.27
2023-05-16T00:15:12.259Z,99356.48
2023-05-16T00:17:40.595Z,99360.58
2023-05-16T00:20:08.366Z,99361.52
2023-05-16T00:22:35.484Z,99362.64
2023-05-16T00:25:02.331Z,99364.71
2023-05-16T00:27:29.495Z,99365.42
2023-05-16T00:29:56.211Z,99365.24
2023-05-16T00:32:24.280Z,99365.39
2023-05-16T00:34:51.662Z,99366.08
2023-05-16T00:37:18.609Z,99368.20
2023-05-16T00:39:45.428Z,99367.96
2023-05-16T00:42:13.228Z,99366.09
2023-05-16T00:44:40.960Z,99368.16
2023-05-16T00:47:07.899Z,99369.04
2023-05-16T00:49:34.879Z,99362.63
2023-05-16T00:52:01.792Z,99360.55
2023-05-16T00:54:28.934Z,99358.71
2023-05-16T00:56:56.286Z,99357.20
2023-05-16T00:59:23.783Z,99355.65
2023-05-16T01:01:50.855Z,99361.38
2023-05-16T01:04:18.422Z,99360.77
2023-05-16T01:06:45.625Z,99361.19
2023-05-16T01:09:12.718Z,99358.86
2023-05-16T01:12:09.771Z,99355.77
2023-05-16T01:14:46.264Z,99357.13
2023-05-16T01:17:41.022Z,99356.69
2023-05-16T01:20:16.843Z,99352.66
2023-05-16T01:22:51.015Z,99352.55
2023-05-16T01:25:33.855Z,99351.59
2023-05-16T01:28:01.921Z,99351.29
2023-05-16T01:30:33.482Z,99349.64
2023-05-16T01:33:00.332Z,99349.95
2023-05-16T01:35:27.159Z,99349.10
2023-05-16T01:37:57.177Z,99348.52
2023-05-16T01:40:38.655Z,99347.99
2023-05-16T01:43:12.677Z,99347.13
2023-05-16T01:45:42.703Z,99344.70
2023-05-16T01:48:19.897Z,99342.40
2023-05-16T01:50:51.214Z,99343.26
2023-05-16T01:53:21.770Z,99341.02
2023-05-16T01:55:50.936Z,99342.81
2023-05-16T01:58:23.310Z,99343.56
2023-05-16T02:00:52.820Z,99337.64
2023-05-16T02:03:20.028Z,99332.67
2023-05-16T02:05:46.848Z,99332.85
2023-05-16T02:08:14.264Z,99328.66
2023-05-16T02:10:42.311Z,99330.70
2023-05-16T02:13:09.174Z,99329.70
2023-05-16T02:15:35.914Z,99328.02
2023-05-16T02:18:02.737Z,99328.09
2023-05-16T02:20:30.123Z,99329.23
2023-05-16T02:22:57.081Z,99327.11
2023-05-16T02:25:25.291Z,99327.10
2023-05-16T02:27:52.683Z,99324.70
2023-05-16T02:30:19.426Z,99324.60
2023-05-16T02:32:48.535Z,99322.20
2023-05-16T02:35:16.338Z,99320.11
2023-05-16T02:37:44.249Z,99327.40
2023-05-16T02:40:12.455Z,99328.77
2023-05-16T02:42:39.473Z,99333.47
2023-05-16T02:45:07.065Z,99332.95
2023-05-16T02:47:34.159Z,99334.82
2023-05-16T02:50:01.283Z,99330.81
2023-05-16T02:52:28.064Z,99331.91
2023-05-16T02:55:09.773Z,99328.55
2023-05-16T02:57:42.027Z,99325.36
2023-05-16T03:00:13.676Z,99323.77
2023-05-16T03:02:40.909Z,99323.89
2023-05-16T03:05:09.496Z,99325.17
2023-05-16T03:07:37.076Z,99325.89
2023-05-16T03:10:06.629Z,99323.79
2023-05-16T03:12:33.447Z,99323.76
2023-05-16T03:15:01.128Z,99325.20
2023-05-16T03:17:28.423Z,99325.27
2023-05-16T03:19:55.483Z,99326.48
2023-05-16T03:22:22.271Z,99326.17
2023-05-16T03:24:49.117Z,99320.58
2023-05-16T03:27:16.441Z,99320.59
2023-05-16T03:29:43.515Z,99319.94
2023-05-16T03:32:11.192Z,99317.70
2023-05-16T03:34:38.639Z,99314.64
2023-05-16T03:37:06.146Z,99314.42
2023-05-16T03:39:33.193Z,99319.35
2023-05-16T03:42:00.045Z,99321.91
2023-05-16T03:44:27.007Z,99328.30
2023-05-16T03:46:55.460Z,99331.15
2023-05-16T03:49:26.903Z,99333.76
2023-05-16T03:51:53.747Z,99336.78
2023-05-16T03:54:21.616Z,99339.75
2023-05-16T03:56:48.347Z,99343.02
2023-05-16T03:59:15.508Z,99344.24
2023-05-16T04:01:42.387Z,99346.52
2023-05-16T04:04:09.293Z,99351.36
2023-05-16T04:06:36.136Z,99357.17
2023-05-16T04:09:03.187Z,99357.68
2023-05-16T04:11:30.436Z,99362.81
2023-05-16T04:14:01.131Z,99364.22
2023-05-16T04:16:28.113Z,99367.70
2023-05-16T04:18:55.922Z,99372.89
2023-05-16T04:21:22.623Z,99376.86
2023-05-16T04:23:49.452Z,99384.39
2023-05-16T04:26:16.202Z,99387.01
2023-05-16T04:28:42.934Z,99391.45
2023-05-16T04:31:10.627Z,99389.06
2023-05-16T04:33:37.545Z,99394.67
2023-05-16T04:36:05.489Z,99391.18
2023-05-16T04:38:32.560Z,99388.58
2023-05-16T04:41:00.354Z,99388.98
2023-05-16T04:43:27.266Z,99390.08
2023-05-16T04:45:54.100Z,99394.82
2023-05-16T04:48:21.572Z,99394.70
2023-05-16T04:50:48.410Z,99393.36
2023-05-16T04:53:15.268Z,99387.48
2023-05-16T04:55:42.193Z,99389.50
2023-05-16T04:58:08.952Z,99392.40
2023-05-16T05:00:36.183Z,99395.75
2023-05-16T05:03:03.307Z,99393.83
2023-05-16T05:05:30.662Z,99392.04
2023-05-16T05:07:58.126Z,99390.98
2023-05-16T05:10:27.338Z,99393.09
2023-05-16T05:12:54.188Z,99395.38
2023-05-16T05:15:21.024Z,99394.39
2023-05-16T05:17:48.105Z,99399.76
2023-05-16T05:20:15.133Z,99397.64
2023-05-16T05:22:42.699Z,99398.12
2023-05-16T05:25:10.015Z,99393.23
2023-05-16T05:27:37.203Z,99385.89
2023-05-16T05:30:04.819Z,99379.35
2023-05-16T05:32:33.154Z,99378.44
2023-05-16T05:35:00.375Z,99377.38
2023-05-16T05:37:27.595Z,99383.34
2023-05-16T05:39:55.176Z,99387.85
2023-05-16T05:42:21.829Z,99387.29
2023-05-16T05:44:48.543Z,99393.13
2023-05-16T05:47:15.254Z,99399.96
2023-05-16T05:49:42.227Z,99403.69
2023-05-16T05:52:08.972Z,99410.05
2023-05-16T05:54:36.084Z,99416.34
2023-05-16T05:57:03.297Z,99419.13
2023-05-16T05:59:30.711Z,99419.21
2023-05-16T06:01:58.355Z,99418.31
2023-05-16T06:04:25.420Z,99414.95
2023-05-16T06:06:52.157Z,99416.67
2023-05-16T06:09:20.673Z,99417.99
2023-05-16T06:11:47.604Z,99413.87
2023-05-16T06:14:15.335Z,99407.73
2023-05-16T06:16:42.058Z,99403.14
2023-05-16T06:19:08.899Z,99400.66
2023-05-16T06:21:36.771Z,99397.83
2023-05-16T06:24:03.790Z,99393.52
2023-05-16T06:26:31.052Z,99391.67
2023-05-16T06:28:58.725Z,99387.06
2023-05-16T06:31:27.412Z,99387.26
2023-05-16T06:33:54.078Z,99385.31
2023-05-16T06:36:20.781Z,99382.48
2023-05-16T06:38:47.492Z,99378.91
2023-05-16T06:41:14.207Z,99377.33
2023-05-16T06:43:41.016Z,99380.42
2023-05-16T06:46:07.838Z,99381.25
2023-05-16T06:48:34.882Z,99383.07
2023-05-16T06:51:01.651Z,99382.08
2023-05-16T06:53:29.099Z,99379.56
2023-05-16T06:55:56.036Z,99368.25
2023-05-16T06:58:22.804Z,99365.20
2023-05-16T07:00:50.723Z,99361.52
2023-05-16T07:03:18.167Z,99363.17
2023-05-16T07:05:45.199Z,99362.64
2023-05-16T07:08:12.088Z,99369.44
2023-05-16T07:10:39.346Z,99365.71
2023-05-16T07:13:06.410Z,99371.48
2023-05-16T07:15:34.744Z,99372.13
2023-05-16T07:18:01.663Z,99367.16
2023-05-16T07:20:29.015Z,99373.43
2023-05-16T07:22:57.142Z,99375.36
2023-05-16T07:25:24.480Z,99373.14
2023-05-16T07:27:51.613Z,99375.09
2023-05-16T07:30:19.156Z,99377.25
2023-05-16T07:32:45.983Z,99376.36
2023-05-16T07:35:13.001Z,99373.65
2023-05-16T07:37:41.959Z,99376.67
2023-05-16T07:40:10.135Z,99375.06
2023-05-16T07:42:37.168Z,99379.44
2023-05-16T07:45:06.504Z,99376.05
2023-05-16T07:47:33.487Z,99383.41
2023-05-16T07:50:00.468Z,99389.92
2023-05-16T07:52:27.656Z,99384.77
2023-05-16T07:54:54.509Z,99391.00
2023-05-16T07:57:23.230Z,99403.68
2023-05-16T07:59:51.912Z,99411.52
2023-05-16T08:02:18.886Z,99410.00
2023-05-16T08:04:46.747Z,99412.42
2023-05-16T08:07:14.188Z,99413.06
2023-05-16T08:09:41.033Z,99413.20
2023-05-16T08:12:08.764Z,99413.65
2023-05-16T08:14:36.608Z,99421.23
2023-05-16T08:17:04.106Z,99426.61
2023-05-16T08:19:32.477Z,99421.98
2023-05-16T08:21:59.303Z,99409.21
2023-05-16T08:24:25.984Z,99395.64
2023-05-16T08:26:52.764Z,99394.77
2023-05-16T08:29:19.623Z,99402.33
2023-05-16T08:31:46.716Z,99413.27
2023-05-16T08:34:16.772Z,99425.22
2023-05-16T08:36:44.356Z,99428.73
2023-05-16T08:39:11.054Z,99424.35
2023-05-16T08:41:38.532Z,99415.06
2023-05-16T08:44:05.824Z,99417.13
2023-05-16T08:46:35.234Z,99415.07
2023-05-16T08:49:07.339Z,99410.09
2023-05-16T08:51:35.101Z,99408.27
2023-05-16T08:54:15.683Z,99407.30
2023-05-16T08:56:43.154Z,99398.21
2023-05-16T08:59:11.052Z,99393.44
2023-05-16T09:01:37.949Z,99387.72
2023-05-16T09:04:06.725Z,99389.76
2023-05-16T09:06:33.535Z,99386.23
2023-05-16T09:09:00.288Z,99394.25
2023-05-16T09:11:28.172Z,99389.91
2023-05-16T09:13:55.344Z,99390.35
2023-05-16T09:16:22.189Z,99386.10
2023-05-16T09:18:59.707Z,99390.77
2023-05-16T09:21:33.520Z,99395.45
2023-05-16T09:24:04.479Z,99396.71
2023-05-16T09:26:36.024Z,99398.82
2023-05-16T09:29:10.743Z,99397.45
2023-05-16T09:31:38.162Z,99402.20
2023-05-16T09:34:08.778Z,99397.88
2023-05-16T09:36:37.073Z,99398.55
2023-05-16T09:39:06.589Z,99398.15
2023-05-16T09:41:34.920Z,99408.01
2023-05-16T09:44:07.790Z,99404.74
2023-05-16T09:46:37.194Z,99404.73
2023-05-16T09:49:04.778Z,99407.28
2023-05-16T09:51:32.982Z,99407.67
2023-05-16T09:54:00.190Z,99409.95
2023-05-16T09:56:27.003Z,99414.63
2023-05-16T09:58:53.959Z,99413.06
2023-05-16T10:01:20.918Z,99421.94
2023-05-16T10:03:47.811Z,99415.17
2023-05-16T10:06:16.244Z,99420.38
2023-05-16T10:08:43.519Z,99407.52
2023-05-16T10:11:10.646Z,99413.71
2023-05-16T10:13:37.613Z,99404.76
2023-05-16T10:16:12.124Z,99407.27
2023-05-16T10:18:39.666Z,99411.30
2023-05-16T10:21:13.015Z,99408.88
2023-05-16T10:23:43.314Z,99408.02
2023-05-16T10:26:11.579Z,99404.33
2023-05-16T10:28:38.637Z,99407.52
2023-05-16T10:31:06.322Z,99403.32
2023-05-16T10:33:36.628Z,99402.66
2023-05-16T10:36:04.915Z,99399.13
2023-05-16T10:38:32.508Z,99405.48
2023-05-16T10:40:59.386Z,99395.00
2023-05-16T10:43:27.476Z,99391.98
2023-05-16T10:45:55.953Z,99394.95
2023-05-16T10:48:34.835Z,99399.20
2023-05-16T10:51:02.706Z,99394.40
2023-05-16T10:53:33.786Z,99391.15
2023-05-16T10:56:00.709Z,99389.98
2023-05-16T10:58:30.944Z,99392.63
2023-05-16T11:01:32.278Z,99395.30
2023-05-16T11:04:00.233Z,99392.77
2023-05-16T11:06:33.760Z,99390.27
2023-05-16T11:09:09.970Z,99391.98
2023-05-16T11:11:52.857Z,99391.89
2023-05-16T11:14:33.138Z,99391.98
2023-05-16T11:17:13.615Z,99389.70
2023-05-16T11:19:48.174Z,99386.87
2023-05-16T11:22:27.530Z,99390.00
2023-05-16T11:24:55.563Z,99388.97
2023-05-16T11:27:25.506Z,99383.56
2023-05-16T11:29:53.364Z,99388.99
2023-05-16T11:32:24.244Z,99388.61
2023-05-16T11:34:51.536Z,99384.02
2023-05-16T11:37:19.516Z,99385.95
2023-05-16T11:39:46.500Z,99390.86
2023-05-16T11:42:13.288Z,99381.71
2023-05-16T11:44:40.723Z,99385.21
2023-05-16T11:47:08.216Z,99383.89
2023-05-16T11:49:35.249Z,99385.38
2023-05-16T11:52:04.051Z,99386.10
2023-05-16T11:54:31.613Z,99389.65
2023-05-16T11:56:58.633Z,99384.67
2023-05-16T11:59:25.956Z,99388.25
2023-05-16T12:01:52.852Z,99384.77
2023-05-16T12:04:20.208Z,99382.54
2023-05-16T12:06:58.031Z,99375.38
2023-05-16T12:09:25.037Z,99376.66
2023-05-16T12:11:52.094Z,99376.02
2023-05-16T12:14:19.032Z,99375.15
2023-05-16T12:16:46.105Z,99377.18
2023-05-16T12:19:13.598Z,99376.06
2023-05-16T12:21:40.640Z,99374.33
2023-05-16T12:24:12.360Z,99378.13
2023-05-16T12:26:40.264Z,99381.73
2023-05-16T12:29:07.350Z,99387.81
2023-05-16T12:31:36.317Z,99384.92
2023-05-16T12:34:03.201Z,99384.73
2023-05-16T12:36:36.366Z,99385.59
2023-05-16T12:39:03.222Z,99381.78
2023-05-16T12:41:30.733Z,99382.71
2023-05-16T12:44:17.406Z,99380.41
2023-05-16T12:46:45.437Z,99384.45
2023-05-16T12:49:13.072Z,99381.40
2023-05-16T12:51:40.537Z,99380.80
2023-05-16T12:54:11.401Z,99379.08
2023-05-16T12:56:39.860Z,99377.56
2023-05-16T12:59:09.810Z,99377.45
2023-05-16T13:01:36.581Z,99379.88
2023-05-16T13:04:04.057Z,99376.83
2023-05-16T13:06:45.016Z,99373.09
2023-05-16T13:09:18.812Z,99373.21
2023-05-16T13:11:45.539Z,99376.14
2023-05-16T13:14:12.347Z,99369.89
2023-05-16T13:16:39.037Z,99368.59
2023-05-16T13:19:06.003Z,99373.20
2023-05-16T13:21:33.149Z,99371.04
2023-05-16T13:24:00.184Z,99367.31
2023-05-16T13:26:28.120Z,99369.29
2023-05-16T13:28:55.252Z,99366.04
2023-05-16T13:31:22.396Z,99359.12
2023-05-16T13:33:49.280Z,99364.83
2023-05-16T13:36:15.986Z,99356.79
2023-05-16T13:38:42.776Z,99356.27
2023-05-16T13:41:09.688Z,99355.13
2023-05-16T13:43:37.082Z,99352.77
2023-05-16T13:46:04.267Z,99351.38
2023-05-16T13:48:31.235Z,99352.61
2023-05-16T13:50:58.035Z,99352.91
2023-05-16T13:53:25.627Z,99357.58
2023-05-16T13:55:52.650Z,99358.44
2023-05-16T13:58:19.626Z,99354.52
2023-05-16T14:00:46.977Z,99350.95
2023-05-16T14:03:14.650Z,99349.31
2023-05-16T14:05:41.940Z,99355.38
2023-05-16T14:08:09.280Z,99354.83
2023-05-16T14:10:37.508Z,99357.60
2023-05-16T14:13:04.283Z,99364.95
2023-05-16T14:15:31.631Z,99358.77
2023-05-16T14:17:59.415Z,99361.98
2023-05-16T14:20:27.191Z,99362.88
2023-05-16T14:22:54.146Z,99361.16
2023-05-16T14:25:20.912Z,99364.29
2023-05-16T14:27:50.450Z,99367.11
2023-05-16T14:30:17.391Z,99373.29
2023-05-16T14:32:44.856Z,99373.96
2023-05-16T14:35:11.864Z,99373.06
2023-05-16T14:37:39.011Z,99366.52
2023-05-16T14:40:08.525Z,99361.95
2023-05-16T14:42:35.940Z,99363.84
2023-05-16T14:45:02.904Z,99366.60
2023-05-16T14:47:30.753Z,99367.76
2023-05-16T14:49:57.784Z,99365.44
2023-05-16T14:52:24.550Z,99360.90
2023-05-16T14:54:51.516Z,99364.36
2023-05-16T14:57:18.219Z,99362.22
2023-05-16T14:59:46.485Z,99363.08
2023-05-16T15:02:13.302Z,99364.92
2023-05-16T15:04:40.304Z,99365.87
2023-05-16T15:07:07.148Z,99365.09
2023-05-16T15:09:34.179Z,99361.04
2023-05-16T15:12:01.424Z,99358.38
2023-05-16T15:14:28.267Z,99358.63
2023-05-16T15:16:55.127Z,99361.63
2023-05-16T15:19:24.644Z,99359.29
2023-05-16T15:21:51.664Z,99363.80
2023-05-16T15:24:18.597Z,99365.52
2023-05-16T15:26:45.750Z,99368.04
2023-05-16T15:29:12.554Z,99365.35
2023-05-16T15:31:42.933Z,99362.08
2023-05-16T15:34:11.067Z,99358.77
2023-05-16T15:36:37.912Z,99361.02
2023-05-16T15:39:05.120Z,99360.23
2023-05-16T15:44:04.008Z,99364.30
2023-05-16T15:46:32.373Z,99361.45
2023-05-16T15:48:59.098Z,99359.73
2023-05-16T15:51:25.679Z,99362.36
2023-05-16T15:53:52.946Z,99358.70
2023-05-16T15:56:19.607Z,99362.56
2023-05-16T15:58:46.296Z,99360.27
2023-05-16T16:01:13.049Z,99361.30
2023-05-16T16:03:39.920Z,99359.92
2023-05-16T16:06:06.910Z,99357.38
2023-05-16T16:08:33.641Z,99354.33
2023-05-16T16:11:00.950Z,99352.64
2023-05-16T16:13:28.662Z,99352.23
2023-05-16T16:15:55.448Z,99355.67
2023-05-16T16:18:22.543Z,99358.05
2023-05-16T16:20:49.292Z,99358.98
2023-05-16T16:23:16.054Z,99361.84
2023-05-16T16:25:42.938Z,99359.23
2023-05-16T16:28:09.686Z,99364.22
2023-05-16T16:30:36.395Z,99358.17
2023-05-16T16:33:03.171Z,99358.61
2023-05-16T16:35:30.056Z,99353.48
2023-05-16T16:38:06.081Z,99355.28
2023-05-16T16:40:35.044Z,99354.37
2023-05-16T16:43:01.818Z,99356.70
2023-05-16T16:45:29.270Z,99359.72
2023-05-16T16:47:56.287Z,99358.92
2023-05-16T16:50:22.999Z,99361.98
2023-05-16T16:52:49.719Z,99365.37
2023-05-16T16:55:16.473Z,99365.73
2023-05-16T16:57:43.460Z,99363.83
2023-05-16T17:00:10.907Z,99362.27
2023-05-16T17:02:38.596Z,99361.80
2023-05-16T17:05:05.828Z,99359.95
2023-05-16T17:07:32.705Z,99361.45
2023-05-16T17:10:00.459Z,99361.30
2023-05-16T17:12:28.293Z,99363.92
2023-05-16T17:14:56.631Z,99364.80
2023-05-16T17:17:24.676Z,99365.08
2023-05-16T17:19:52.295Z,99363.86
2023-05-16T17:22:20.820Z,99367.51
2023-05-16T17:24:47.699Z,99363.60
2023-05-16T17:27:14.451Z,99360.45
2023-05-16T17:29:42.024Z,99361.23
2023-05-16T17:32:08.899Z,99368.54
2023-05-16T17:34:36.487Z,99371.36
2023-05-16T17:37:06.175Z,99367.79
2023-05-16T17:39:33.601Z,99367.17
2023-05-16T17:42:00.371Z,99368.00
2023-05-16T17:44:29.625Z,99362.53
2023-05-16T17:46:56.760Z,99365.63
2023-05-16T17:49:23.461Z,99368.55
2023-05-16T17:51:51.666Z,99370.92
2023-05-16T17:54:18.754Z,99369.02
2023-05-16T17:56:46.491Z,99366.86
2023-05-16T17:59:13.317Z,99368.92
2023-05-16T18:01:40.587Z,99368.30
2023-05-16T18:04:07.711Z,99370.95
2023-05-16T18:06:38.521Z,99372.84
2023-05-16T18:09:06.810Z,99375.16
2023-05-16T18:11:33.770Z,99375.77
2023-05-16T18:14:01.497Z,99374.27
2023-05-16T18:16:32.374Z,99375.51
2023-05-16T18:18:59.335Z,99375.99
2023-05-16T18:21:26.092Z,99379.88
2023-05-16T18:23:53.880Z,99380.71
2023-05-16T18:26:21.432Z,99377.02
2023-05-16T18:28:48.269Z,99377.57
2023-05-16T18:31:15.198Z,99378.05
2023-05-16T18:33:43.172Z,99380.83
2023-05-16T18:36:10.085Z,99385.63
2023-05-16T18:38:36.952Z,99384.37
2023-05-16T18:41:03.835Z,99389.86
2023-05-16T18:43:34.664Z,99391.47
2023-05-16T18:46:02.227Z,99397.47
2023-05-16T18:48:29.356Z,99397.27
2023-05-16T18:50:56.223Z,99398.73
2023-05-16T18:53:23.227Z,99395.52
2023-05-16T18:55:50.345Z,99395.83
2023-05-16T18:58:18.487Z,99391.24
2023-05-16T19:00:45.494Z,99392.55
2023-05-16T19:03:13.012Z,99391.27
2023-05-16T19:05:39.949Z,99390.11
2023-05-16T19:08:06.871Z,99386.15
2023-05-16T19:10:37.598Z,99388.64
2023-05-16T19:13:08.334Z,99388.36
2023-05-16T19:15:35.544Z,99387.84
2023-05-16T19:18:04.219Z,99387.95
2023-05-16T19:20:31.838Z,99388.41
2023-05-16T19:22:58.572Z,99385.08
2023-05-16T19:25:25.960Z,99386.02
2023-05-16T19:27:52.690Z,99386.02
2023-05-16T19:30:20.345Z,99384.35
2023-05-16T19:32:48.316Z,99381.96
2023-05-16T19:35:15.332Z,99387.16
2023-05-16T19:37:42.078Z,99386.19
2023-05-16T19:40:10.432Z,99393.16
2023-05-16T19:42:37.436Z,99393.39
2023-05-16T19:45:04.705Z,99394.98
2023-05-16T19:47:31.529Z,99396.73
2023-05-16T19:49:58.243Z,99398.33
2023-05-16T19:52:25.544Z,99395.33
2023-05-16T19:54:52.984Z,99394.34
2023-05-16T19:57:19.710Z,99391.27
2023-05-16T19:59:46.350Z,99392.72
2023-05-16T20:02:14.437Z,99390.65
2023-05-16T20:04:41.920Z,99386.55
2023-05-16T20:07:09.051Z,99385.64
2023-05-16T20:09:35.851Z,99386.92
2023-05-16T20:12:03.077Z,99385.98
2023-05-16T20:14:30.103Z,99388.20
2023-05-16T20:16:58.154Z,99388.90
2023-05-16T20:19:24.932Z,99388.74
2023-05-16T20:21:51.722Z,99387.15
2023-05-16T20:24:18.433Z,99391.82
2023-05-16T20:26:45.143Z,99394.59
2023-05-16T20:29:12.240Z,99393.57
2023-05-16T20:31:42.096Z,99389.36
2023-05-16T20:34:09.277Z,99392.10
2023-05-16T20:36:36.086Z,99389.91
2023-05-16T20:39:03.525Z,99388.89
2023-05-16T20:41:30.433Z,99385.27
2023-05-16T20:43:58.089Z,99385.52
2023-05-16T20:46:25.043Z,99384.98
2023-05-16T20:48:52.102Z,99384.97
2023-05-16T20:51:18.841Z,99383.79
2023-05-16T20:53:45.845Z,99383.66
2023-05-16T20:56:12.453Z,99382.79
2023-05-16T20:58:41.588Z,99382.58
2023-05-16T21:01:08.431Z,99384.25
2023-05-16T21:03:35.206Z,99378.98
2023-05-16T21:06:02.074Z,99379.95
2023-05-16T21:08:29.157Z,99378.23
2023-05-16T21:10:55.822Z,99373.67
2023-05-16T21:13:23.814Z,99376.86
2023-05-16T21:15:50.622Z,99373.52
2023-05-16T21:18:19.116Z,99377.40
2023-05-16T21:20:46.112Z,99374.34
2023-05-16T21:23:12.864Z,99375.43
2023-05-16T21:25:40.536Z,99373.23
2023-05-16T21:28:07.424Z,99369.23
2023-05-16T21:30:34.660Z,99369.89
2023-05-16T21:33:01.565Z,99370.86
2023-05-16T21:35:28.708Z,99368.14
2023-05-16T21:37:55.809Z,99368.60
2023-05-16T21:40:25.023Z,99371.39
2023-05-16T21:42:52.039Z,99369.67
2023-05-16T21:45:18.808Z,99369.68
2023-05-16T21:47:45.920Z,99368.56
2023-05-16T21:50:12.762Z,99365.26
2023-05-16T21:52:39.843Z,99362.91
2023-05-16T21:55:07.098Z,99366.50
2023-05-16T21:57:33.801Z,99367.81
2023-05-16T22:00:02.295Z,99364.51
2023-05-16T22:02:35.755Z,99366.30
2023-05-16T22:05:03.063Z,99367.68
2023-05-16T22:07:30.998Z,99366.75
2023-05-16T22:09:57.906Z,99365.57
2023-05-16T22:12:25.667Z,99365.85
2023-05-16T22:14:52.244Z,99367.67
2023-05-16T22:17:19.505Z,99365.98
2023-05-16T22:19:46.752Z,99368.46
2023-05-16T22:22:13.642Z,99371.19
2023-05-16T22:24:40.464Z,99374.66
2023-05-16T22:27:07.224Z,99376.05
2023-05-16T22:29:37.568Z,99373.63
2023-05-16T22:32:08.043Z,99374.59
2023-05-16T22:34:35.447Z,99377.44
2023-05-16T22:37:02.066Z,99380.16
2023-05-16T22:39:28.925Z,99380.94
2023-05-16T22:41:55.550Z,99383.21
2023-05-16T22:44:22.184Z,99384.20
2023-05-16T22:46:49.257Z,99384.70
2023-05-16T22:49:16.254Z,99388.01
2023-05-16T22:51:42.936Z,99385.83
2023-05-16T22:54:09.742Z,99384.41
2023-05-16T22:56:36.742Z,99384.47
2023-05-16T22:59:03.374Z,99384.88
2023-05-16T23:01:30.054Z,99383.67
2023-05-16T23:03:56.852Z,99384.12
2023-05-16T23:06:23.683Z,99386.70
2023-05-16T23:08:50.765Z,99390.52
2023-05-16T23:11:19.211Z,99389.86
2023-05-16T23:13:46.020Z,99389.35
2023-05-16T23:16:12.670Z,99387.16
2023-05-16T23:18:40.730Z,99389.50
2023-05-16T23:21:07.898Z,99386.66
2023-05-16T23:23:34.704Z,99385.80
2023-05-16T23:26:01.370Z,99389.14
2023-05-16T23:28:28.187Z,99387.20
2023-05-16T23:30:55.473Z,99387.86
2023-05-16T23:33:22.207Z,99388.91
2023-05-16T23:35:48.943Z,99388.11
2023-05-16T23:38:16.118Z,99387.67
2023-05-16T23:40:42.746Z,99390.71
2023-05-16T23:43:09.367Z,99391.55
2023-05-16T23:45:36.903Z,99389.31
2023-05-16T23:48:04.287Z,99389.77
2023-05-16T23:50:32.025Z,99388.81
2023-05-16T23:52:58.689Z,99390.20
2023-05-16T23:55:25.513Z,99390.56
2023-05-16T23:57:52.169Z,99390.73
